Sanko Independence — A8QJ9 — position and weather

sailwx.info

Track history (hours):
 
Tides and Currents Weather Stations Pressure Air Temp Water Temp Dewpoint Dewpoint Depression Visibility Wind Speed Wind Dir Waves Ship Positions

Sanko Independence

Last reported at 2017-Feb-05 19:30 UTC. Time now 2017-Feb-21 01:17 UTC.
Position N 09°11' W 079°52'.
Warning: this ship's position is 15 days out of date.

Length 174 m; draft 10.6 m.

Type: Ship (hazmat cat C). MMSI: 636013946.

Date/timePositionNaut miles runAvg speedWind from/ knotsBaromVisibWave heightAir tempDewpointWater temp
2017-Feb-05 19:30N 09°11' W 079°52'5 5.3
2017-Feb-05 18:33N 09°14' W 079°55'2 2.1
2017-Feb-05 17:33N 09°17' W 079°55'1 0.7
2017-Feb-05 16:33N 09°17' W 079°55'6 5.6
2017-Feb-05 15:33N 09°23' W 079°56'0 0.0
2017-Feb-05 14:33N 09°23' W 079°56'0 0.0
2017-Feb-05 13:33N 09°23' W 079°56'0 0.0
2017-Feb-05 12:33N 09°23' W 079°56'0 0.0
2017-Feb-05 11:30N 09°23' W 079°56'0 0.0
2017-Feb-05 10:33N 09°23' W 079°56'0 0.0
2017-Feb-05 09:33N 09°23' W 079°56'0 0.0
2017-Feb-05 08:30N 09°23' W 079°56'0 0.0
2017-Feb-05 07:33N 09°23' W 079°56'0 0.0
2017-Feb-05 06:33N 09°23' W 079°56'0 0.0
2017-Feb-05 05:33N 09°23' W 079°56'0 0.0
2017-Feb-05 04:33N 09°23' W 079°56'0 0.0
2017-Feb-05 03:33N 09°23' W 079°56'0 0.0
2017-Feb-05 02:33N 09°23' W 079°56'0 0.0
2017-Feb-05 01:33N 09°23' W 079°56'0 0.1
2017-Feb-05 00:27N 09°23' W 079°56'3 3.2
2017-Feb-04 23:33N 09°26' W 079°55'9 8.6
2017-Feb-04 22:32N 09°34' W 079°53'  
2017-Jan-31 09:12N 29°58' W 090°17'0 0.0
2017-Jan-31 08:30N 29°58' W 090°17'0 0.0
2017-Jan-31 06:24N 29°58' W 090°17'0 0.0
2017-Jan-31 02:12N 29°58' W 090°17'  
Track history (hours):
 
Tides and Currents Weather Stations Pressure Air Temp Water Temp Dewpoint Dewpoint Depression Visibility Wind Speed Wind Dir Waves Ship Positions

Sanko Independence

Last reported at 2017-Feb-05 19:30 UTC. Time now 2017-Feb-21 01:17 UTC.
Position N 09°11' W 079°52'.
Warning: this ship's position is 15 days out of date.

Length 174 m; draft 10.6 m.

Type: Ship (hazmat cat C). MMSI: 636013946.

Date/timePositionNaut miles runAvg speedWind from/ knotsBaromVisibWave heightAir tempDewpointWater temp
2017-Feb-05 19:30N 09°11' W 079°52'5 5.3
2017-Feb-05 18:33N 09°14' W 079°55'2 2.1
2017-Feb-05 17:33N 09°17' W 079°55'1 0.7
2017-Feb-05 16:33N 09°17' W 079°55'6 5.6
2017-Feb-05 15:33N 09°23' W 079°56'0 0.0
2017-Feb-05 14:33N 09°23' W 079°56'0 0.0
2017-Feb-05 13:33N 09°23' W 079°56'0 0.0
2017-Feb-05 12:33N 09°23' W 079°56'0 0.0
2017-Feb-05 11:30N 09°23' W 079°56'0 0.0
2017-Feb-05 10:33N 09°23' W 079°56'0 0.0
2017-Feb-05 09:33N 09°23' W 079°56'0 0.0
2017-Feb-05 08:30N 09°23' W 079°56'0 0.0
2017-Feb-05 07:33N 09°23' W 079°56'0 0.0
2017-Feb-05 06:33N 09°23' W 079°56'0 0.0
2017-Feb-05 05:33N 09°23' W 079°56'0 0.0
2017-Feb-05 04:33N 09°23' W 079°56'0 0.0
2017-Feb-05 03:33N 09°23' W 079°56'0 0.0
2017-Feb-05 02:33N 09°23' W 079°56'0 0.0
2017-Feb-05 01:33N 09°23' W 079°56'0 0.1
2017-Feb-05 00:27N 09°23' W 079°56'3 3.2
2017-Feb-04 23:33N 09°26' W 079°55'9 8.6
2017-Feb-04 22:32N 09°34' W 079°53'  
2017-Jan-31 09:12N 29°58' W 090°17'0 0.0
2017-Jan-31 08:30N 29°58' W 090°17'0 0.0
2017-Jan-31 06:24N 29°58' W 090°17'0 0.0
2017-Jan-31 02:12N 29°58' W 090°17'  

Dump ship's entire track history